sensor_id;sensor_type;location;lat;lon;timestamp;pressure;altitude;pressure_sealevel;temperature;humidity
26531;BME280;14201;43.188;24.160;2023-04-08T00:01:01;99916.66;;;7.20;78.63
26531;BME280;14201;43.188;24.160;2023-04-08T00:03:27;99917.47;;;7.19;78.86
26531;BME280;14201;43.188;24.160;2023-04-08T00:05:52;99904.78;;;7.24;78.70
26531;BME280;14201;43.188;24.160;2023-04-08T00:08:18;99888.16;;;7.20;78.38
26531;BME280;14201;43.188;24.160;2023-04-08T00:10:44;99908.63;;;7.30;78.73
26531;BME280;14201;43.188;24.160;2023-04-08T00:13:09;99899.72;;;7.25;78.87
26531;BME280;14201;43.188;24.160;2023-04-08T00:15:35;99901.94;;;7.34;78.34
26531;BME280;14201;43.188;24.160;2023-04-08T00:18:01;99882.72;;;7.30;77.94
26531;BME280;14201;43.188;24.160;2023-04-08T00:20:27;99908.13;;;7.51;77.41
26531;BME280;14201;43.188;24.160;2023-04-08T00:22:52;99906.50;;;7.53;77.05
26531;BME280;14201;43.188;24.160;2023-04-08T00:25:18;99899.69;;;7.40;77.58
26531;BME280;14201;43.188;24.160;2023-04-08T00:27:44;99896.19;;;7.25;78.00
26531;BME280;14201;43.188;24.160;2023-04-08T00:30:09;99893.41;;;7.07;78.20
26531;BME280;14201;43.188;24.160;2023-04-08T00:32:36;99887.53;;;7.09;78.14
26531;BME280;14201;43.188;24.160;2023-04-08T00:35:02;99898.88;;;7.12;79.31
26531;BME280;14201;43.188;24.160;2023-04-08T00:37:28;99909.47;;;7.01;79.74
26531;BME280;14201;43.188;24.160;2023-04-08T00:39:55;99905.47;;;7.06;78.87
26531;BME280;14201;43.188;24.160;2023-04-08T00:42:21;99903.03;;;6.66;80.57
26531;BME280;14201;43.188;24.160;2023-04-08T00:44:47;99915.16;;;6.81;80.56
26531;BME280;14201;43.188;24.160;2023-04-08T00:47:16;99915.31;;;6.84;80.54
26531;BME280;14201;43.188;24.160;2023-04-08T00:49:42;99909.31;;;6.57;82.01
26531;BME280;14201;43.188;24.160;2023-04-08T00:52:08;99904.19;;;6.30;84.41
26531;BME280;14201;43.188;24.160;2023-04-08T00:54:35;99911.91;;;6.02;86.14
26531;BME280;14201;43.188;24.160;2023-04-08T00:57:02;99910.91;;;6.13;86.22
26531;BME280;14201;43.188;24.160;2023-04-08T00:59:29;99916.69;;;6.22;86.27
26531;BME280;14201;43.188;24.160;2023-04-08T01:02:00;99916.84;;;6.25;85.78
26531;BME280;14201;43.188;24.160;2023-04-08T01:07:24;99909.56;;;6.46;85.35
26531;BME280;14201;43.188;24.160;2023-04-08T01:09:55;99904.16;;;6.57;84.72
26531;BME280;14201;43.188;24.160;2023-04-08T01:12:25;99898.88;;;6.55;84.78
26531;BME280;14201;43.188;24.160;2023-04-08T01:14:56;99910.53;;;6.62;84.44
26531;BME280;14201;43.188;24.160;2023-04-08T01:17:23;99911.25;;;6.74;82.99
26531;BME280;14201;43.188;24.160;2023-04-08T01:19:49;99911.78;;;6.68;83.41
26531;BME280;14201;43.188;24.160;2023-04-08T01:25:05;99908.47;;;6.84;83.37
26531;BME280;14201;43.188;24.160;2023-04-08T01:27:33;99905.09;;;6.72;83.40
26531;BME280;14201;43.188;24.160;2023-04-08T01:30:02;99915.03;;;6.79;83.50
26531;BME280;14201;43.188;24.160;2023-04-08T01:32:30;99913.06;;;6.75;83.55
26531;BME280;14201;43.188;24.160;2023-04-08T01:34:57;99915.78;;;6.63;83.56
26531;BME280;14201;43.188;24.160;2023-04-08T01:37:24;99910.63;;;6.63;83.96
26531;BME280;14201;43.188;24.160;2023-04-08T01:39:51;99898.28;;;6.59;83.77
26531;BME280;14201;43.188;24.160;2023-04-08T01:42:17;99920.75;;;6.60;83.92
26531;BME280;14201;43.188;24.160;2023-04-08T01:44:43;99918.81;;;6.43;84.43
26531;BME280;14201;43.188;24.160;2023-04-08T01:47:12;99921.00;;;6.50;84.52
26531;BME280;14201;43.188;24.160;2023-04-08T01:49:38;99918.78;;;6.56;84.19
26531;BME280;14201;43.188;24.160;2023-04-08T01:52:05;99926.56;;;6.56;84.34
26531;BME280;14201;43.188;24.160;2023-04-08T01:54:33;99931.13;;;6.60;84.56
26531;BME280;14201;43.188;24.160;2023-04-08T01:57:00;99927.75;;;6.61;85.18
26531;BME280;14201;43.188;24.160;2023-04-08T01:59:29;99920.53;;;6.70;84.71
26531;BME280;14201;43.188;24.160;2023-04-08T02:01:56;99926.53;;;6.69;84.71
26531;BME280;14201;43.188;24.160;2023-04-08T02:04:21;99931.88;;;6.73;84.41
26531;BME280;14201;43.188;24.160;2023-04-08T02:06:47;99928.72;;;6.77;84.27
26531;BME280;14201;43.188;24.160;2023-04-08T02:09:13;99932.44;;;6.82;84.02
26531;BME280;14201;43.188;24.160;2023-04-08T02:11:38;99927.47;;;6.85;83.36
26531;BME280;14201;43.188;24.160;2023-04-08T02:14:04;99932.06;;;6.76;83.49
26531;BME280;14201;43.188;24.160;2023-04-08T02:16:33;99934.88;;;6.79;83.98
26531;BME280;14201;43.188;24.160;2023-04-08T02:19:11;99925.31;;;6.78;84.71
26531;BME280;14201;43.188;24.160;2023-04-08T02:21:45;99914.53;;;6.85;84.36
26531;BME280;14201;43.188;24.160;2023-04-08T02:24:13;99918.00;;;6.85;83.80
26531;BME280;14201;43.188;24.160;2023-04-08T02:26:40;99910.19;;;6.70;84.29
26531;BME280;14201;43.188;24.160;2023-04-08T02:29:11;99919.75;;;6.72;84.32
26531;BME280;14201;43.188;24.160;2023-04-08T02:31:40;99911.22;;;6.59;85.05
26531;BME280;14201;43.188;24.160;2023-04-08T02:34:08;99901.78;;;6.46;84.55
26531;BME280;14201;43.188;24.160;2023-04-08T02:36:34;99913.53;;;6.41;85.41
26531;BME280;14201;43.188;24.160;2023-04-08T02:39:01;99908.50;;;6.29;85.90
26531;BME280;14201;43.188;24.160;2023-04-08T02:41:28;99906.91;;;6.18;87.17
26531;BME280;14201;43.188;24.160;2023-04-08T02:43:54;99893.59;;;6.12;87.31
26531;BME280;14201;43.188;24.160;2023-04-08T02:46:19;99909.91;;;6.24;87.24
26531;BME280;14201;43.188;24.160;2023-04-08T02:48:45;99916.56;;;6.34;86.80
26531;BME280;14201;43.188;24.160;2023-04-08T02:51:11;99918.53;;;6.38;86.79
26531;BME280;14201;43.188;24.160;2023-04-08T02:53:36;99916.44;;;6.46;86.14
26531;BME280;14201;43.188;24.160;2023-04-08T02:56:02;99915.44;;;6.44;85.81
26531;BME280;14201;43.188;24.160;2023-04-08T02:58:27;99916.19;;;6.56;84.78
26531;BME280;14201;43.188;24.160;2023-04-08T03:00:53;99923.47;;;6.62;84.04
26531;BME280;14201;43.188;24.160;2023-04-08T03:03:18;99922.63;;;6.63;84.08
26531;BME280;14201;43.188;24.160;2023-04-08T03:05:44;99928.25;;;6.56;84.27
26531;BME280;14201;43.188;24.160;2023-04-08T03:08:10;99913.53;;;6.41;84.63
26531;BME280;14201;43.188;24.160;2023-04-08T03:10:35;99922.88;;;6.53;85.40
26531;BME280;14201;43.188;24.160;2023-04-08T03:13:01;99927.13;;;6.65;84.76
26531;BME280;14201;43.188;24.160;2023-04-08T03:15:27;99932.31;;;6.65;84.12
26531;BME280;14201;43.188;24.160;2023-04-08T03:17:52;99927.66;;;6.60;84.25
26531;BME280;14201;43.188;24.160;2023-04-08T03:20:18;99927.75;;;6.61;84.29
26531;BME280;14201;43.188;24.160;2023-04-08T03:22:43;99923.97;;;6.56;83.70
26531;BME280;14201;43.188;24.160;2023-04-08T03:25:09;99934.31;;;6.56;83.43
26531;BME280;14201;43.188;24.160;2023-04-08T03:27:36;99938.88;;;6.60;83.24
26531;BME280;14201;43.188;24.160;2023-04-08T03:30:01;99936.66;;;6.66;82.43
26531;BME280;14201;43.188;24.160;2023-04-08T03:32:27;99936.13;;;6.57;82.71
26531;BME280;14201;43.188;24.160;2023-04-08T03:34:52;99945.19;;;6.50;83.02
26531;BME280;14201;43.188;24.160;2023-04-08T03:37:18;99942.47;;;6.49;83.78
26531;BME280;14201;43.188;24.160;2023-04-08T03:39:44;99947.97;;;6.54;84.38
26531;BME280;14201;43.188;24.160;2023-04-08T03:42:10;99937.28;;;6.62;84.29
26531;BME280;14201;43.188;24.160;2023-04-08T03:44:36;99949.44;;;6.63;85.43
26531;BME280;14201;43.188;24.160;2023-04-08T03:47:01;99954.91;;;6.68;85.08
26531;BME280;14201;43.188;24.160;2023-04-08T03:49:27;99952.88;;;6.77;83.64
26531;BME280;14201;43.188;24.160;2023-04-08T03:51:53;99953.19;;;6.68;84.06
26531;BME280;14201;43.188;24.160;2023-04-08T03:54:18;99952.19;;;6.66;83.84
26531;BME280;14201;43.188;24.160;2023-04-08T03:56:44;99947.75;;;6.64;84.21
26531;BME280;14201;43.188;24.160;2023-04-08T03:59:09;99956.78;;;6.70;83.86
26531;BME280;14201;43.188;24.160;2023-04-08T04:01:35;99957.59;;;6.69;82.84
26531;BME280;14201;43.188;24.160;2023-04-08T04:04:00;99952.63;;;6.59;83.59
26531;BME280;14201;43.188;24.160;2023-04-08T04:06:26;99956.50;;;6.53;83.84
26531;BME280;14201;43.188;24.160;2023-04-08T04:08:52;99950.97;;;6.46;84.29
26531;BME280;14201;43.188;24.160;2023-04-08T04:11:19;99944.28;;;6.50;84.27
26531;BME280;14201;43.188;24.160;2023-04-08T04:13:46;99938.09;;;6.61;83.76
26531;BME280;14201;43.188;24.160;2023-04-08T04:16:11;99937.69;;;6.55;83.96
26531;BME280;14201;43.188;24.160;2023-04-08T04:18:37;99938.88;;;6.60;83.31
26531;BME280;14201;43.188;24.160;2023-04-08T04:21:05;99941.19;;;6.56;83.36
26531;BME280;14201;43.188;24.160;2023-04-08T04:23:31;99931.97;;;6.46;84.01
26531;BME280;14201;43.188;24.160;2023-04-08T04:25:57;99936.13;;;6.57;82.87
26531;BME280;14201;43.188;24.160;2023-04-08T04:28:23;99946.38;;;6.42;83.24
26531;BME280;14201;43.188;24.160;2023-04-08T04:30:48;99931.28;;;6.22;84.23
26531;BME280;14201;43.188;24.160;2023-04-08T04:33:14;99946.50;;;6.30;85.14
26531;BME280;14201;43.188;24.160;2023-04-08T04:35:40;99947.09;;;6.40;84.86
26531;BME280;14201;43.188;24.160;2023-04-08T04:38:06;99958.03;;;6.36;85.28
26531;BME280;14201;43.188;24.160;2023-04-08T04:40:36;99950.47;;;6.39;85.46
26531;BME280;14201;43.188;24.160;2023-04-08T04:43:02;99945.41;;;6.40;85.80
26531;BME280;14201;43.188;24.160;2023-04-08T04:45:27;99951.94;;;6.48;86.91
26531;BME280;14201;43.188;24.160;2023-04-08T04:47:53;99935.88;;;6.67;87.18
26531;BME280;14201;43.188;24.160;2023-04-08T04:50:19;99946.16;;;6.94;86.67
26531;BME280;14201;43.188;24.160;2023-04-08T04:52:45;99949.09;;;7.14;84.53
26531;BME280;14201;43.188;24.160;2023-04-08T04:55:10;99948.84;;;7.24;84.35
26531;BME280;14201;43.188;24.160;2023-04-08T04:57:36;99939.75;;;7.45;82.80
26531;BME280;14201;43.188;24.160;2023-04-08T05:00:01;99961.19;;;7.58;82.97
26531;BME280;14201;43.188;24.160;2023-04-08T05:02:28;99960.69;;;7.78;80.14
26531;BME280;14201;43.188;24.160;2023-04-08T05:04:53;99957.47;;;7.82;79.84
26531;BME280;14201;43.188;24.160;2023-04-08T05:07:20;99956.19;;;7.91;78.84
26531;BME280;14201;43.188;24.160;2023-04-08T05:09:46;99940.28;;;7.84;79.05
26531;BME280;14201;43.188;24.160;2023-04-08T05:12:12;99952.72;;;7.75;80.80
26531;BME280;14201;43.188;24.160;2023-04-08T05:14:38;99961.66;;;7.80;80.95
26531;BME280;14201;43.188;24.160;2023-04-08T05:17:03;99952.38;;;7.84;80.61
26531;BME280;14201;43.188;24.160;2023-04-08T05:19:30;99956.94;;;7.88;80.77
26531;BME280;14201;43.188;24.160;2023-04-08T05:21:55;99954.97;;;7.84;81.53
26531;BME280;14201;43.188;24.160;2023-04-08T05:24:21;99960.06;;;7.82;80.32
26531;BME280;14201;43.188;24.160;2023-04-08T05:26:47;99965.25;;;7.82;80.35
26531;BME280;14201;43.188;24.160;2023-04-08T05:29:16;99964.69;;;7.73;81.47
26531;BME280;14201;43.188;24.160;2023-04-08T05:31:43;99957.63;;;7.71;80.14
26531;BME280;14201;43.188;24.160;2023-04-08T05:34:09;99968.00;;;7.71;80.15
26531;BME280;14201;43.188;24.160;2023-04-08T05:36:35;99967.28;;;7.73;79.45
26531;BME280;14201;43.188;24.160;2023-04-08T05:39:01;99968.09;;;7.72;78.91
26531;BME280;14201;43.188;24.160;2023-04-08T05:41:27;99961.66;;;7.80;78.63
26531;BME280;14201;43.188;24.160;2023-04-08T05:43:52;99967.94;;;7.84;79.27
26531;BME280;14201;43.188;24.160;2023-04-08T05:46:18;99962.66;;;7.82;79.58
26531;BME280;14201;43.188;24.160;2023-04-08T05:48:44;99979.09;;;7.83;79.09
26531;BME280;14201;43.188;24.160;2023-04-08T05:51:13;99969.00;;;7.87;77.79
26531;BME280;14201;43.188;24.160;2023-04-08T05:53:40;99964.44;;;7.83;78.11
26531;BME280;14201;43.188;24.160;2023-04-08T05:56:05;99970.69;;;7.72;78.78
26531;BME280;14201;43.188;24.160;2023-04-08T05:58:31;99972.75;;;7.63;78.77
26531;BME280;14201;43.188;24.160;2023-04-08T06:00:56;99966.91;;;7.52;79.99
26531;BME280;14201;43.188;24.160;2023-04-08T06:03:22;99959.69;;;7.46;80.06
26531;BME280;14201;43.188;24.160;2023-04-08T06:05:48;99958.81;;;7.61;79.49
26531;BME280;14201;43.188;24.160;2023-04-08T06:08:13;99962.09;;;7.73;79.89
26531;BME280;14201;43.188;24.160;2023-04-08T06:10:39;99962.94;;;7.72;79.85
26531;BME280;14201;43.188;24.160;2023-04-08T06:13:05;99949.34;;;7.76;79.99
26531;BME280;14201;43.188;24.160;2023-04-08T06:15:30;99954.97;;;7.99;79.73
26531;BME280;14201;43.188;24.160;2023-04-08T06:17:57;99955.47;;;8.08;78.51
26531;BME280;14201;43.188;24.160;2023-04-08T06:20:22;99957.72;;;8.17;77.70
26531;BME280;14201;43.188;24.160;2023-04-08T06:22:48;99958.84;;;8.22;77.15
26531;BME280;14201;43.188;24.160;2023-04-08T06:25:14;99949.00;;;8.31;76.09
26531;BME280;14201;43.188;24.160;2023-04-08T06:27:39;99956.59;;;8.43;75.41
26531;BME280;14201;43.188;24.160;2023-04-08T06:30:05;99960.25;;;8.46;76.77
26531;BME280;14201;43.188;24.160;2023-04-08T06:32:31;99957.03;;;8.51;75.99
26531;BME280;14201;43.188;24.160;2023-04-08T06:34:57;99951.28;;;8.56;76.80
26531;BME280;14201;43.188;24.160;2023-04-08T06:37:23;99932.75;;;8.65;77.64
26531;BME280;14201;43.188;24.160;2023-04-08T06:39:49;99944.34;;;8.72;77.13
26531;BME280;14201;43.188;24.160;2023-04-08T06:42:15;99951.41;;;9.07;76.52
26531;BME280;14201;43.188;24.160;2023-04-08T06:44:40;99953.94;;;9.38;74.19
26531;BME280;14201;43.188;24.160;2023-04-08T06:47:06;99952.78;;;9.50;73.60
26531;BME280;14201;43.188;24.160;2023-04-08T06:49:32;99954.53;;;9.67;71.96
26531;BME280;14201;43.188;24.160;2023-04-08T06:51:57;99952.88;;;9.85;72.15
26531;BME280;14201;43.188;24.160;2023-04-08T06:54:23;99951.31;;;10.07;72.03
26531;BME280;14201;43.188;24.160;2023-04-08T06:56:48;99948.31;;;10.34;72.29
26531;BME280;14201;43.188;24.160;2023-04-08T06:59:14;99946.09;;;10.79;68.22
26531;BME280;14201;43.188;24.160;2023-04-08T07:01:40;99952.78;;;11.11;66.17
26531;BME280;14201;43.188;24.160;2023-04-08T07:04:06;99952.69;;;11.49;67.10
26531;BME280;14201;43.188;24.160;2023-04-08T07:06:31;99950.19;;;11.71;64.71
26531;BME280;14201;43.188;24.160;2023-04-08T07:08:57;99958.81;;;11.90;65.28
26531;BME280;14201;43.188;24.160;2023-04-08T07:11:22;99954.09;;;12.23;65.35
26531;BME280;14201;43.188;24.160;2023-04-08T07:13:47;99962.22;;;12.08;63.12
26531;BME280;14201;43.188;24.160;2023-04-08T07:16:13;99961.88;;;12.00;63.70
26531;BME280;14201;43.188;24.160;2023-04-08T07:18:38;99963.16;;;12.10;64.62
26531;BME280;14201;43.188;24.160;2023-04-08T07:21:05;99970.84;;;12.07;64.10
26531;BME280;14201;43.188;24.160;2023-04-08T07:23:31;99966.47;;;12.06;64.77
26531;BME280;14201;43.188;24.160;2023-04-08T07:26:00;99970.44;;;12.17;61.82
26531;BME280;14201;43.188;24.160;2023-04-08T07:28:26;99964.81;;;12.08;59.78
26531;BME280;14201;43.188;24.160;2023-04-08T07:30:51;99966.72;;;12.12;62.33
26531;BME280;14201;43.188;24.160;2023-04-08T07:33:17;99967.28;;;12.05;58.96
26531;BME280;14201;43.188;24.160;2023-04-08T07:35:42;99964.59;;;12.25;62.21
26531;BME280;14201;43.188;24.160;2023-04-08T07:38:08;99961.84;;;12.43;63.04
26531;BME280;14201;43.188;24.160;2023-04-08T07:40:35;99970.84;;;12.72;60.90
26531;BME280;14201;43.188;24.160;2023-04-08T07:43:01;99967.84;;;12.85;58.29
26531;BME280;14201;43.188;24.160;2023-04-08T07:45:26;99972.69;;;12.97;59.02
26531;BME280;14201;43.188;24.160;2023-04-08T07:47:52;99967.38;;;12.95;55.68
26531;BME280;14201;43.188;24.160;2023-04-08T07:50:17;99973.06;;;13.08;55.90
26531;BME280;14201;43.188;24.160;2023-04-08T07:52:44;99972.69;;;13.21;56.65
26531;BME280;14201;43.188;24.160;2023-04-08T07:55:12;99969.94;;;13.41;54.39
26531;BME280;14201;43.188;24.160;2023-04-08T07:57:40;99966.72;;;13.48;55.91
26531;BME280;14201;43.188;24.160;2023-04-08T08:00:05;99971.84;;;13.69;55.91
26531;BME280;14201;43.188;24.160;2023-04-08T08:02:32;99972.41;;;13.86;53.10
26531;BME280;14201;43.188;24.160;2023-04-08T08:04:59;99972.72;;;13.95;51.26
26531;BME280;14201;43.188;24.160;2023-04-08T08:07:25;99976.22;;;13.95;56.15
26531;BME280;14201;43.188;24.160;2023-04-08T08:09:50;99982.03;;;14.12;51.04
26531;BME280;14201;43.188;24.160;2023-04-08T08:12:15;99974.72;;;13.76;49.27
26531;BME280;14201;43.188;24.160;2023-04-08T08:14:41;99974.59;;;13.73;52.51
26531;BME280;14201;43.188;24.160;2023-04-08T08:17:06;99972.84;;;13.98;49.63
26531;BME280;14201;43.188;24.160;2023-04-08T08:19:31;99974.28;;;13.64;47.52
26531;BME280;14201;43.188;24.160;2023-04-08T08:21:57;99981.47;;;13.70;45.83
26531;BME280;14201;43.188;24.160;2023-04-08T08:24:22;99979.53;;;13.90;49.10
26531;BME280;14201;43.188;24.160;2023-04-08T08:26:48;99981.25;;;13.64;49.93
26531;BME280;14201;43.188;24.160;2023-04-08T08:29:13;99989.63;;;13.79;49.57
26531;BME280;14201;43.188;24.160;2023-04-08T08:31:38;99990.75;;;14.11;47.93
26531;BME280;14201;43.188;24.160;2023-04-08T08:34:04;99984.66;;;14.12;48.62
26531;BME280;14201;43.188;24.160;2023-04-08T08:36:30;99981.25;;;14.42;47.98
26531;BME280;14201;43.188;24.160;2023-04-08T08:38:55;99984.19;;;14.51;47.98
26531;BME280;14201;43.188;24.160;2023-04-08T08:41:20;99984.50;;;14.61;48.11
26531;BME280;14201;43.188;24.160;2023-04-08T08:43:46;99983.44;;;14.83;46.26
26531;BME280;14201;43.188;24.160;2023-04-08T08:46:12;99976.19;;;15.03;44.47
26531;BME280;14201;43.188;24.160;2023-04-08T08:48:39;99982.81;;;15.20;45.45
26531;BME280;14201;43.188;24.160;2023-04-08T08:51:08;99975.63;;;15.45;45.32
26531;BME280;14201;43.188;24.160;2023-04-08T08:53:34;99986.47;;;15.57;46.19
26531;BME280;14201;43.188;24.160;2023-04-08T08:55:59;99979.50;;;15.58;44.31
26531;BME280;14201;43.188;24.160;2023-04-08T08:58:25;99978.44;;;15.83;46.86
26531;BME280;14201;43.188;24.160;2023-04-08T09:00:53;99982.09;;;15.88;44.01
26531;BME280;14201;43.188;24.160;2023-04-08T09:03:25;99980.81;;;16.07;45.29
26531;BME280;14201;43.188;24.160;2023-04-08T09:08:32;99982.00;;;16.54;44.51
26531;BME280;14201;43.188;24.160;2023-04-08T09:13:39;99987.88;;;16.44;39.92
26531;BME280;14201;43.188;24.160;2023-04-08T09:16:08;99985.50;;;16.55;41.38
26531;BME280;14201;43.188;24.160;2023-04-08T09:18:37;99987.78;;;16.78;41.52
26531;BME280;14201;43.188;24.160;2023-04-08T09:21:03;99985.16;;;16.78;42.46
26531;BME280;14201;43.188;24.160;2023-04-08T09:23:48;99986.38;;;16.92;41.55
26531;BME280;14201;43.188;24.160;2023-04-08T09:26:15;99982.78;;;16.87;42.05
26531;BME280;14201;43.188;24.160;2023-04-08T09:28:41;99988.84;;;16.48;39.38
26531;BME280;14201;43.188;24.160;2023-04-08T09:31:23;99986.78;;;16.01;39.26
26531;BME280;14201;43.188;24.160;2023-04-08T09:33:49;99990.28;;;16.00;40.73
26531;BME280;14201;43.188;24.160;2023-04-08T09:36:15;99982.88;;;15.23;41.12
26531;BME280;14201;43.188;24.160;2023-04-08T09:38:41;99982.34;;;15.35;42.55
26531;BME280;14201;43.188;24.160;2023-04-08T09:41:07;99985.13;;;15.40;42.82
26531;BME280;14201;43.188;24.160;2023-04-08T09:43:38;99984.31;;;15.74;43.79
26531;BME280;14201;43.188;24.160;2023-04-08T09:46:06;99978.75;;;16.30;44.87
26531;BME280;14201;43.188;24.160;2023-04-08T09:48:36;99972.13;;;16.09;39.65
26531;BME280;14201;43.188;24.160;2023-04-08T09:51:04;99985.31;;;15.78;40.29
26531;BME280;14201;43.188;24.160;2023-04-08T09:53:40;99981.84;;;15.79;39.26
26531;BME280;14201;43.188;24.160;2023-04-08T09:56:11;99987.09;;;15.79;39.69
26531;BME280;14201;43.188;24.160;2023-04-08T09:58:53;99980.81;;;15.73;41.97
26531;BME280;14201;43.188;24.160;2023-04-08T10:01:27;99971.63;;;15.58;40.58
26531;BME280;14201;43.188;24.160;2023-04-08T10:03:57;99978.50;;;15.54;40.77
26531;BME280;14201;43.188;24.160;2023-04-08T10:06:27;99969.19;;;15.65;41.04
26531;BME280;14201;43.188;24.160;2023-04-08T10:08:56;99981.06;;;15.51;40.96
26531;BME280;14201;43.188;24.160;2023-04-08T10:11:22;99985.66;;;15.60;39.56
26531;BME280;14201;43.188;24.160;2023-04-08T10:13:47;99983.22;;;15.98;39.50
26531;BME280;14201;43.188;24.160;2023-04-08T10:16:22;99971.41;;;16.17;38.29
26531;BME280;14201;43.188;24.160;2023-04-08T10:18:50;99970.16;;;16.73;40.35
26531;BME280;14201;43.188;24.160;2023-04-08T10:21:35;99972.03;;;16.41;38.64
26531;BME280;14201;43.188;24.160;2023-04-08T10:24:07;99962.94;;;16.28;39.07
26531;BME280;14201;43.188;24.160;2023-04-08T10:26:34;99959.47;;;16.66;40.19
26531;BME280;14201;43.188;24.160;2023-04-08T10:31:43;99955.34;;;16.77;37.43
26531;BME280;14201;43.188;24.160;2023-04-08T10:34:15;99950.41;;;16.91;38.21
26531;BME280;14201;43.188;24.160;2023-04-08T10:36:41;99952.16;;;16.92;38.87
26531;BME280;14201;43.188;24.160;2023-04-08T10:39:07;99948.56;;;16.88;38.67
26531;BME280;14201;43.188;24.160;2023-04-08T10:41:32;99939.84;;;16.89;38.77
26531;BME280;14201;43.188;24.160;2023-04-08T10:43:58;99945.22;;;16.96;38.24
26531;BME280;14201;43.188;24.160;2023-04-08T10:46:26;99949.88;;;17.07;39.89
26531;BME280;14201;43.188;24.160;2023-04-08T10:49:00;99946.94;;;16.93;38.08
26531;BME280;14201;43.188;24.160;2023-04-08T10:51:29;99947.41;;;16.76;38.47
26531;BME280;14201;43.188;24.160;2023-04-08T10:53:56;99953.50;;;16.73;36.21
26531;BME280;14201;43.188;24.160;2023-04-08T10:56:29;99943.81;;;16.34;36.38
26531;BME280;14201;43.188;24.160;2023-04-08T10:58:54;99949.81;;;16.28;37.93
26531;BME280;14201;43.188;24.160;2023-04-08T11:01:20;99951.06;;;16.08;38.89
26531;BME280;14201;43.188;24.160;2023-04-08T11:03:46;99946.41;;;15.96;37.89
26531;BME280;14201;43.188;24.160;2023-04-08T11:06:12;99940.09;;;16.26;39.38
26531;BME280;14201;43.188;24.160;2023-04-08T11:08:38;99940.09;;;16.62;39.90
26531;BME280;14201;43.188;24.160;2023-04-08T11:11:04;99944.50;;;16.25;37.67
26531;BME280;14201;43.188;24.160;2023-04-08T11:13:33;99950.38;;;15.82;39.31
26531;BME280;14201;43.188;24.160;2023-04-08T11:15:58;99948.03;;;15.59;39.02
26531;BME280;14201;43.188;24.160;2023-04-08T11:18:24;99949.31;;;15.73;40.32
26531;BME280;14201;43.188;24.160;2023-04-08T11:20:50;99948.19;;;15.65;39.01
26531;BME280;14201;43.188;24.160;2023-04-08T11:23:16;99944.31;;;15.83;38.37
26531;BME280;14201;43.188;24.160;2023-04-08T11:25:45;99945.91;;;16.12;38.90
26531;BME280;14201;43.188;24.160;2023-04-08T11:28:11;99946.78;;;16.11;39.18
26531;BME280;14201;43.188;24.160;2023-04-08T11:30:37;99940.59;;;15.74;40.38
26531;BME280;14201;43.188;24.160;2023-04-08T11:33:03;99938.25;;;15.53;41.50
26531;BME280;14201;43.188;24.160;2023-04-08T11:35:29;99933.63;;;15.77;41.29
26531;BME280;14201;43.188;24.160;2023-04-08T11:37:55;99919.72;;;15.81;40.76
26531;BME280;14201;43.188;24.160;2023-04-08T11:40:20;99927.72;;;15.85;42.42
26531;BME280;14201;43.188;24.160;2023-04-08T11:42:49;99925.22;;;15.58;41.93
26531;BME280;14201;43.188;24.160;2023-04-08T11:45:15;99929.75;;;15.30;41.13
26531;BME280;14201;43.188;24.160;2023-04-08T11:47:41;99926.28;;;15.33;42.01
26531;BME280;14201;43.188;24.160;2023-04-08T11:50:07;99916.56;;;15.61;42.41
26531;BME280;14201;43.188;24.160;2023-04-08T11:52:48;99921.44;;;15.79;41.31
26531;BME280;14201;43.188;24.160;2023-04-08T11:55:25;99917.00;;;16.12;40.61
26531;BME280;14201;43.188;24.160;2023-04-08T11:57:50;99918.22;;;15.90;40.89
26531;BME280;14201;43.188;24.160;2023-04-08T12:00:17;99907.22;;;16.07;42.44
26531;BME280;14201;43.188;24.160;2023-04-08T12:02:43;99915.16;;;16.08;40.64
26531;BME280;14201;43.188;24.160;2023-04-08T12:05:08;99909.53;;;15.60;40.66
26531;BME280;14201;43.188;24.160;2023-04-08T12:07:33;99909.94;;;15.42;40.49
26531;BME280;14201;43.188;24.160;2023-04-08T12:09:59;99916.78;;;15.36;41.77
26531;BME280;14201;43.188;24.160;2023-04-08T12:12:25;99914.59;;;15.20;41.30
26531;BME280;14201;43.188;24.160;2023-04-08T12:14:50;99916.22;;;14.86;42.50
26531;BME280;14201;43.188;24.160;2023-04-08T12:17:16;99901.47;;;14.90;41.89
26531;BME280;14201;43.188;24.160;2023-04-08T12:19:41;99905.25;;;15.00;42.15
26531;BME280;14201;43.188;24.160;2023-04-08T12:22:07;99908.53;;;14.92;42.82
26531;BME280;14201;43.188;24.160;2023-04-08T12:24:32;99903.50;;;15.00;44.22
26531;BME280;14201;43.188;24.160;2023-04-08T12:26:58;99911.59;;;15.08;44.67
26531;BME280;14201;43.188;24.160;2023-04-08T12:29:23;99903.72;;;15.06;43.79
26531;BME280;14201;43.188;24.160;2023-04-08T12:31:49;99892.13;;;15.00;43.03
26531;BME280;14201;43.188;24.160;2023-04-08T12:34:14;99887.31;;;15.15;43.95
26531;BME280;14201;43.188;24.160;2023-04-08T12:36:40;99881.41;;;15.22;43.88
26531;BME280;14201;43.188;24.160;2023-04-08T12:39:06;99907.81;;;15.28;44.12
26531;BME280;14201;43.188;24.160;2023-04-08T12:41:32;99890.22;;;14.94;44.33
26531;BME280;14201;43.188;24.160;2023-04-08T12:43:57;99873.50;;;14.90;44.85
26531;BME280;14201;43.188;24.160;2023-04-08T12:46:23;99872.75;;;14.94;46.22
26531;BME280;14201;43.188;24.160;2023-04-08T12:48:48;99888.31;;;14.88;46.36
26531;BME280;14201;43.188;24.160;2023-04-08T12:51:13;99880.16;;;14.79;48.04
26531;BME280;14201;43.188;24.160;2023-04-08T12:53:39;99875.13;;;15.17;47.00
26531;BME280;14201;43.188;24.160;2023-04-08T12:56:04;99880.09;;;15.06;47.47
26531;BME280;14201;43.188;24.160;2023-04-08T12:58:30;99872.22;;;15.06;48.77
26531;BME280;14201;43.188;24.160;2023-04-08T13:00:55;99863.72;;;15.15;46.87
26531;BME280;14201;43.188;24.160;2023-04-08T13:03:21;99866.97;;;15.06;46.37
26531;BME280;14201;43.188;24.160;2023-04-08T13:05:46;99860.41;;;15.22;47.25